sensor_id;sensor_type;location;lat;lon;timestamp;P1;durP1;ratioP1;P2;durP2;ratioP2
54979;SDS011;44101;50.462;30.432;2022-09-12T00:00:40;18.55;;;14.75;;
54979;SDS011;44101;50.462;30.432;2022-09-12T00:03:07;18.20;;;13.90;;
54979;SDS011;44101;50.462;30.432;2022-09-12T00:05:33;18.88;;;14.43;;
54979;SDS011;44101;50.462;30.432;2022-09-12T00:07:59;17.30;;;13.40;;
54979;SDS011;44101;50.462;30.432;2022-09-12T00:10:25;17.38;;;14.02;;
54979;SDS011;44101;50.462;30.432;2022-09-12T00:12:51;17.30;;;13.63;;
54979;SDS011;44101;50.462;30.432;2022-09-12T00:15:17;19.25;;;13.80;;
54979;SDS011;44101;50.462;30.432;2022-09-12T00:17:42;17.48;;;13.13;;
54979;SDS011;44101;50.462;30.432;2022-09-12T00:20:09;15.15;;;12.20;;
54979;SDS011;44101;50.462;30.432;2022-09-12T00:22:36;13.32;;;11.68;;
54979;SDS011;44101;50.462;30.432;2022-09-12T00:25:02;13.32;;;11.90;;
54979;SDS011;44101;50.462;30.432;2022-09-12T00:27:28;14.43;;;12.13;;
54979;SDS011;44101;50.462;30.432;2022-09-12T00:29:54;13.25;;;11.00;;
54979;SDS011;44101;50.462;30.432;2022-09-12T00:32:20;15.05;;;11.60;;
54979;SDS011;44101;50.462;30.432;2022-09-12T00:34:46;13.85;;;11.73;;
54979;SDS011;44101;50.462;30.432;2022-09-12T00:37:12;15.15;;;11.57;;
54979;SDS011;44101;50.462;30.432;2022-09-12T00:39:38;14.43;;;12.20;;
54979;SDS011;44101;50.462;30.432;2022-09-12T00:42:03;16.35;;;14.20;;
54979;SDS011;44101;50.462;30.432;2022-09-12T00:47:03;18.42;;;12.80;;
54979;SDS011;44101;50.462;30.432;2022-09-12T00:52:23;17.35;;;13.73;;
54979;SDS011;44101;50.462;30.432;2022-09-12T00:55:01;18.45;;;10.95;;
54979;SDS011;44101;50.462;30.432;2022-09-12T00:58:01;19.42;;;11.18;;
54979;SDS011;44101;50.462;30.432;2022-09-12T01:00:32;14.55;;;10.43;;
54979;SDS011;44101;50.462;30.432;2022-09-12T01:02:59;11.90;;;10.70;;
54979;SDS011;44101;50.462;30.432;2022-09-12T01:05:28;16.08;;;11.55;;
54979;SDS011;44101;50.462;30.432;2022-09-12T01:07:58;14.85;;;11.52;;
54979;SDS011;44101;50.462;30.432;2022-09-12T01:10:26;12.02;;;10.40;;
54979;SDS011;44101;50.462;30.432;2022-09-12T01:12:52;12.27;;;8.85;;
54979;SDS011;44101;50.462;30.432;2022-09-12T01:15:18;14.07;;;8.18;;
54979;SDS011;44101;50.462;30.432;2022-09-12T01:29:55;10.05;;;7.57;;
54979;SDS011;44101;50.462;30.432;2022-09-12T01:38:10;11.13;;;8.00;;
54979;SDS011;44101;50.462;30.432;2022-09-12T01:40:51;8.45;;;7.57;;
54979;SDS011;44101;50.462;30.432;2022-09-12T01:49:25;6.93;;;6.18;;
54979;SDS011;44101;50.462;30.432;2022-09-12T01:52:31;7.70;;;6.30;;
54979;SDS011;44101;50.462;30.432;2022-09-12T01:58:08;7.47;;;5.38;;
54979;SDS011;44101;50.462;30.432;2022-09-12T02:01:14;5.97;;;5.32;;
54979;SDS011;44101;50.462;30.432;2022-09-12T02:04:26;5.15;;;4.55;;
54979;SDS011;44101;50.462;30.432;2022-09-12T02:06:40;7.13;;;5.57;;
54979;SDS011;44101;50.462;30.432;2022-09-12T02:09:14;5.22;;;4.72;;
54979;SDS011;44101;50.462;30.432;2022-09-12T02:11:45;5.35;;;4.88;;
54979;SDS011;44101;50.462;30.432;2022-09-12T02:14:16;7.85;;;5.22;;
54979;SDS011;44101;50.462;30.432;2022-09-12T02:16:50;10.82;;;5.45;;
54979;SDS011;44101;50.462;30.432;2022-09-12T02:19:21;7.43;;;4.53;;
54979;SDS011;44101;50.462;30.432;2022-09-12T02:21:55;5.10;;;4.60;;
54979;SDS011;44101;50.462;30.432;2022-09-12T02:26:59;6.32;;;4.80;;
54979;SDS011;44101;50.462;30.432;2022-09-12T02:29:30;5.63;;;5.00;;
54979;SDS011;44101;50.462;30.432;2022-09-12T02:31:59;5.00;;;4.50;;
54979;SDS011;44101;50.462;30.432;2022-09-12T02:34:40;5.05;;;4.50;;
54979;SDS011;44101;50.462;30.432;2022-09-12T02:40:04;8.07;;;4.30;;
54979;SDS011;44101;50.462;30.432;2022-09-12T02:42:33;4.63;;;4.10;;
54979;SDS011;44101;50.462;30.432;2022-09-12T02:44:59;6.00;;;3.97;;
54979;SDS011;44101;50.462;30.432;2022-09-12T02:47:27;4.20;;;3.58;;
54979;SDS011;44101;50.462;30.432;2022-09-12T02:49:58;8.45;;;3.80;;
54979;SDS011;44101;50.462;30.432;2022-09-12T02:52:24;7.43;;;4.32;;
54979;SDS011;44101;50.462;30.432;2022-09-12T02:54:52;5.32;;;4.15;;
54979;SDS011;44101;50.462;30.432;2022-09-12T02:57:20;4.40;;;4.00;;
54979;SDS011;44101;50.462;30.432;2022-09-12T02:59:46;4.40;;;4.00;;
54979;SDS011;44101;50.462;30.432;2022-09-12T03:02:31;3.70;;;3.30;;
54979;SDS011;44101;50.462;30.432;2022-09-12T03:21:38;4.68;;;2.65;;
54979;SDS011;44101;50.462;30.432;2022-09-12T03:24:12;4.70;;;2.63;;
54979;SDS011;44101;50.462;30.432;2022-09-12T03:26:43;4.45;;;2.90;;
54979;SDS011;44101;50.462;30.432;2022-09-12T03:29:10;6.68;;;2.85;;
54979;SDS011;44101;50.462;30.432;2022-09-12T03:31:45;1.10;;;1.10;;
54979;SDS011;44101;50.462;30.432;2022-09-12T03:34:13;1.10;;;1.00;;
54979;SDS011;44101;50.462;30.432;2022-09-12T03:36:38;1.77;;;0.60;;
54979;SDS011;44101;50.462;30.432;2022-09-12T03:39:05;0.52;;;0.47;;
54979;SDS011;44101;50.462;30.432;2022-09-12T03:41:30;0.38;;;0.30;;
54979;SDS011;44101;50.462;30.432;2022-09-12T03:43:56;0.50;;;0.40;;
54979;SDS011;44101;50.462;30.432;2022-09-12T03:46:21;0.60;;;0.60;;
54979;SDS011;44101;50.462;30.432;2022-09-12T03:48:47;0.38;;;0.30;;
54979;SDS011;44101;50.462;30.432;2022-09-12T03:51:14;0.40;;;0.30;;
54979;SDS011;44101;50.462;30.432;2022-09-12T03:53:40;0.20;;;0.20;;
54979;SDS011;44101;50.462;30.432;2022-09-12T03:56:09;0.60;;;0.60;;
54979;SDS011;44101;50.462;30.432;2022-09-12T03:58:36;1.77;;;0.40;;
54979;SDS011;44101;50.462;30.432;2022-09-12T04:01:08;0.32;;;0.20;;
54979;SDS011;44101;50.462;30.432;2022-09-12T04:03:46;0.57;;;0.20;;
54979;SDS011;44101;50.462;30.432;2022-09-12T04:06:15;1.25;;;0.40;;
54979;SDS011;44101;50.462;30.432;2022-09-12T04:08:43;0.45;;;0.43;;
54979;SDS011;44101;50.462;30.432;2022-09-12T04:11:09;0.20;;;0.20;;
54979;SDS011;44101;50.462;30.432;2022-09-12T04:13:37;1.83;;;0.20;;
54979;SDS011;44101;50.462;30.432;2022-09-12T04:16:04;0.30;;;0.30;;
54979;SDS011;44101;50.462;30.432;2022-09-12T04:18:31;0.57;;;0.40;;
54979;SDS011;44101;50.462;30.432;2022-09-12T04:20:57;1.73;;;0.82;;
54979;SDS011;44101;50.462;30.432;2022-09-12T04:23:23;0.30;;;0.28;;
54979;SDS011;44101;50.462;30.432;2022-09-12T04:25:55;0.32;;;0.30;;
54979;SDS011;44101;50.462;30.432;2022-09-12T04:28:22;0.32;;;0.30;;
54979;SDS011;44101;50.462;30.432;2022-09-12T04:30:48;0.40;;;0.35;;
54979;SDS011;44101;50.462;30.432;2022-09-12T04:33:14;0.43;;;0.43;;
54979;SDS011;44101;50.462;30.432;2022-09-12T04:35:39;1.13;;;1.02;;
54979;SDS011;44101;50.462;30.432;2022-09-12T04:38:06;2.83;;;0.47;;
54979;SDS011;44101;50.462;30.432;2022-09-12T04:40:31;1.40;;;1.30;;
54979;SDS011;44101;50.462;30.432;2022-09-12T04:42:57;1.02;;;0.30;;
54979;SDS011;44101;50.462;30.432;2022-09-12T04:45:23;0.20;;;0.20;;
54979;SDS011;44101;50.462;30.432;2022-09-12T04:47:49;1.42;;;0.50;;
54979;SDS011;44101;50.462;30.432;2022-09-12T04:50:15;0.82;;;0.40;;
54979;SDS011;44101;50.462;30.432;2022-09-12T04:52:41;3.15;;;0.50;;
54979;SDS011;44101;50.462;30.432;2022-09-12T04:55:07;1.67;;;0.60;;
54979;SDS011;44101;50.462;30.432;2022-09-12T04:57:33;1.27;;;0.50;;
54979;SDS011;44101;50.462;30.432;2022-09-12T05:00:00;1.25;;;0.43;;
54979;SDS011;44101;50.462;30.432;2022-09-12T05:02:26;1.15;;;0.60;;
54979;SDS011;44101;50.462;30.432;2022-09-12T05:04:53;4.70;;;0.47;;
54979;SDS011;44101;50.462;30.432;2022-09-12T05:07:19;0.52;;;0.43;;
54979;SDS011;44101;50.462;30.432;2022-09-12T05:09:44;0.40;;;0.40;;
54979;SDS011;44101;50.462;30.432;2022-09-12T05:12:10;2.60;;;0.50;;
54979;SDS011;44101;50.462;30.432;2022-09-12T05:14:36;1.13;;;0.60;;
54979;SDS011;44101;50.462;30.432;2022-09-12T05:17:02;1.85;;;0.70;;
54979;SDS011;44101;50.462;30.432;2022-09-12T05:19:30;1.13;;;0.65;;
54979;SDS011;44101;50.462;30.432;2022-09-12T05:21:56;0.88;;;0.52;;
54979;SDS011;44101;50.462;30.432;2022-09-12T05:24:22;2.35;;;0.80;;
54979;SDS011;44101;50.462;30.432;2022-09-12T05:26:49;2.70;;;0.80;;
54979;SDS011;44101;50.462;30.432;2022-09-12T05:29:15;1.63;;;0.80;;
54979;SDS011;44101;50.462;30.432;2022-09-12T05:31:40;1.25;;;0.80;;
54979;SDS011;44101;50.462;30.432;2022-09-12T05:34:06;3.95;;;1.13;;
54979;SDS011;44101;50.462;30.432;2022-09-12T05:36:33;1.40;;;0.90;;
54979;SDS011;44101;50.462;30.432;2022-09-12T05:38:59;1.88;;;1.20;;
54979;SDS011;44101;50.462;30.432;2022-09-12T05:41:26;1.38;;;0.82;;
54979;SDS011;44101;50.462;30.432;2022-09-12T05:43:55;2.30;;;1.23;;
54979;SDS011;44101;50.462;30.432;2022-09-12T05:46:23;2.90;;;1.20;;
54979;SDS011;44101;50.462;30.432;2022-09-12T05:48:51;1.15;;;1.00;;
54979;SDS011;44101;50.462;30.432;2022-09-12T05:51:19;2.40;;;0.98;;
54979;SDS011;44101;50.462;30.432;2022-09-12T05:53:48;3.50;;;1.02;;
54979;SDS011;44101;50.462;30.432;2022-09-12T05:56:17;1.67;;;1.45;;
54979;SDS011;44101;50.462;30.432;2022-09-12T05:58:45;1.50;;;0.95;;
54979;SDS011;44101;50.462;30.432;2022-09-12T06:01:16;4.38;;;1.05;;
54979;SDS011;44101;50.462;30.432;2022-09-12T06:03:44;1.90;;;1.02;;
54979;SDS011;44101;50.462;30.432;2022-09-12T06:06:11;0.70;;;0.70;;
54979;SDS011;44101;50.462;30.432;2022-09-12T06:08:38;1.83;;;0.98;;
54979;SDS011;44101;50.462;30.432;2022-09-12T06:11:06;4.20;;;1.30;;
54979;SDS011;44101;50.462;30.432;2022-09-12T06:13:34;1.80;;;0.65;;
54979;SDS011;44101;50.462;30.432;2022-09-12T06:18:34;2.05;;;1.00;;
54979;SDS011;44101;50.462;30.432;2022-09-12T06:21:01;4.55;;;0.82;;
54979;SDS011;44101;50.462;30.432;2022-09-12T06:23:31;1.15;;;0.80;;
54979;SDS011;44101;50.462;30.432;2022-09-12T06:25:57;2.00;;;1.00;;
54979;SDS011;44101;50.462;30.432;2022-09-12T06:28:23;4.63;;;1.33;;
54979;SDS011;44101;50.462;30.432;2022-09-12T06:30:49;4.05;;;1.25;;
54979;SDS011;44101;50.462;30.432;2022-09-12T06:33:15;8.27;;;1.30;;
54979;SDS011;44101;50.462;30.432;2022-09-12T06:35:41;5.43;;;1.00;;
54979;SDS011;44101;50.462;30.432;2022-09-12T06:38:07;4.30;;;1.08;;
54979;SDS011;44101;50.462;30.432;2022-09-12T06:40:33;2.30;;;1.23;;
54979;SDS011;44101;50.462;30.432;2022-09-12T06:43:05;4.50;;;1.17;;
54979;SDS011;44101;50.462;30.432;2022-09-12T06:45:31;9.70;;;1.52;;
54979;SDS011;44101;50.462;30.432;2022-09-12T06:47:57;2.70;;;1.20;;
54979;SDS011;44101;50.462;30.432;2022-09-12T06:50:22;4.53;;;1.52;;
54979;SDS011;44101;50.462;30.432;2022-09-12T06:52:49;2.70;;;1.02;;
54979;SDS011;44101;50.462;30.432;2022-09-12T06:55:15;2.08;;;1.15;;
54979;SDS011;44101;50.462;30.432;2022-09-12T06:57:41;2.70;;;1.52;;
54979;SDS011;44101;50.462;30.432;2022-09-12T07:00:08;3.92;;;1.58;;
54979;SDS011;44101;50.462;30.432;2022-09-12T07:02:36;3.10;;;1.58;;
54979;SDS011;44101;50.462;30.432;2022-09-12T07:05:01;3.47;;;1.40;;
54979;SDS011;44101;50.462;30.432;2022-09-12T07:07:27;4.90;;;2.30;;
54979;SDS011;44101;50.462;30.432;2022-09-12T07:09:55;3.55;;;1.30;;
54979;SDS011;44101;50.462;30.432;2022-09-12T07:12:22;2.78;;;1.23;;
54979;SDS011;44101;50.462;30.432;2022-09-12T07:14:47;4.63;;;1.23;;
54979;SDS011;44101;50.462;30.432;2022-09-12T07:17:13;2.08;;;1.02;;
54979;SDS011;44101;50.462;30.432;2022-09-12T07:19:38;2.03;;;0.90;;
54979;SDS011;44101;50.462;30.432;2022-09-12T07:22:05;1.52;;;1.02;;
54979;SDS011;44101;50.462;30.432;2022-09-12T07:24:31;2.60;;;1.17;;
54979;SDS011;44101;50.462;30.432;2022-09-12T07:26:57;3.90;;;1.20;;
54979;SDS011;44101;50.462;30.432;2022-09-12T07:29:22;1.40;;;1.25;;
54979;SDS011;44101;50.462;30.432;2022-09-12T07:31:48;6.13;;;1.30;;
54979;SDS011;44101;50.462;30.432;2022-09-12T07:34:13;5.85;;;1.27;;
54979;SDS011;44101;50.462;30.432;2022-09-12T07:36:39;1.00;;;0.90;;
54979;SDS011;44101;50.462;30.432;2022-09-12T07:39:05;2.50;;;1.13;;
54979;SDS011;44101;50.462;30.432;2022-09-12T07:41:31;2.17;;;1.10;;
54979;SDS011;44101;50.462;30.432;2022-09-12T07:44:00;1.35;;;0.90;;
54979;SDS011;44101;50.462;30.432;2022-09-12T07:46:27;4.75;;;1.17;;
54979;SDS011;44101;50.462;30.432;2022-09-12T07:48:54;2.10;;;1.00;;
54979;SDS011;44101;50.462;30.432;2022-09-12T07:51:22;1.13;;;0.77;;
54979;SDS011;44101;50.462;30.432;2022-09-12T07:53:49;3.75;;;0.98;;
54979;SDS011;44101;50.462;30.432;2022-09-12T07:56:16;2.90;;;1.23;;
54979;SDS011;44101;50.462;30.432;2022-09-12T07:58:42;1.15;;;1.00;;
54979;SDS011;44101;50.462;30.432;2022-09-12T08:01:09;1.67;;;1.10;;
54979;SDS011;44101;50.462;30.432;2022-09-12T08:03:38;1.98;;;1.55;;
54979;SDS011;44101;50.462;30.432;2022-09-12T08:06:17;1.77;;;1.30;;
54979;SDS011;44101;50.462;30.432;2022-09-12T08:08:46;2.10;;;1.25;;
54979;SDS011;44101;50.462;30.432;2022-09-12T08:11:13;2.72;;;2.03;;
54979;SDS011;44101;50.462;30.432;2022-09-12T08:13:40;1.80;;;1.63;;
54979;SDS011;44101;50.462;30.432;2022-09-12T08:16:08;2.13;;;1.70;;
54979;SDS011;44101;50.462;30.432;2022-09-12T08:18:37;1.70;;;1.33;;
54979;SDS011;44101;50.462;30.432;2022-09-12T08:21:04;2.80;;;1.50;;
54979;SDS011;44101;50.462;30.432;2022-09-12T08:23:41;1.58;;;1.10;;
54979;SDS011;44101;50.462;30.432;2022-09-12T08:26:08;1.88;;;1.17;;
54979;SDS011;44101;50.462;30.432;2022-09-12T08:28:35;2.60;;;1.38;;
54979;SDS011;44101;50.462;30.432;2022-09-12T08:33:27;2.25;;;1.33;;
54979;SDS011;44101;50.462;30.432;2022-09-12T08:38:29;1.90;;;1.17;;
54979;SDS011;44101;50.462;30.432;2022-09-12T08:46:24;1.67;;;1.20;;
54979;SDS011;44101;50.462;30.432;2022-09-12T08:49:12;2.55;;;1.50;;
54979;SDS011;44101;50.462;30.432;2022-09-12T08:51:42;1.67;;;1.38;;
54979;SDS011;44101;50.462;30.432;2022-09-12T08:54:19;1.30;;;1.20;;
54979;SDS011;44101;50.462;30.432;2022-09-12T08:56:48;1.75;;;1.40;;
54979;SDS011;44101;50.462;30.432;2022-09-12T08:59:14;1.75;;;1.50;;
54979;SDS011;44101;50.462;30.432;2022-09-12T09:01:41;2.25;;;1.60;;
54979;SDS011;44101;50.462;30.432;2022-09-12T09:04:31;2.95;;;1.27;;
54979;SDS011;44101;50.462;30.432;2022-09-12T09:10:22;2.17;;;1.80;;
54979;SDS011;44101;50.462;30.432;2022-09-12T09:19:13;1.65;;;1.30;;
54979;SDS011;44101;50.462;30.432;2022-09-12T09:24:46;5.50;;;2.22;;
54979;SDS011;44101;50.462;30.432;2022-09-12T09:29:53;5.30;;;1.73;;
54979;SDS011;44101;50.462;30.432;2022-09-12T09:32:27;1.85;;;1.45;;
54979;SDS011;44101;50.462;30.432;2022-09-12T09:34:59;1.45;;;1.35;;
54979;SDS011;44101;50.462;30.432;2022-09-12T09:38:00;3.05;;;1.15;;
54979;SDS011;44101;50.462;30.432;2022-09-12T09:40:33;1.40;;;1.20;;
54979;SDS011;44101;50.462;30.432;2022-09-12T09:45:53;2.88;;;1.63;;
54979;SDS011;44101;50.462;30.432;2022-09-12T09:48:24;2.33;;;1.80;;
54979;SDS011;44101;50.462;30.432;2022-09-12T09:50:55;1.80;;;1.42;;
54979;SDS011;44101;50.462;30.432;2022-09-12T09:53:25;3.50;;;1.50;;
54979;SDS011;44101;50.462;30.432;2022-09-12T09:55:52;2.38;;;1.70;;
54979;SDS011;44101;50.462;30.432;2022-09-12T09:58:33;4.05;;;1.88;;
54979;SDS011;44101;50.462;30.432;2022-09-12T10:01:00;1.95;;;1.70;;
54979;SDS011;44101;50.462;30.432;2022-09-12T10:03:31;5.63;;;1.55;;
54979;SDS011;44101;50.462;30.432;2022-09-12T10:06:20;2.38;;;1.95;;
54979;SDS011;44101;50.462;30.432;2022-09-12T10:08:49;2.45;;;1.60;;
54979;SDS011;44101;50.462;30.432;2022-09-12T10:16:22;4.03;;;1.85;;
54979;SDS011;44101;50.462;30.432;2022-09-12T10:18:49;2.72;;;1.50;;
54979;SDS011;44101;50.462;30.432;2022-09-12T10:21:18;2.38;;;1.88;;
54979;SDS011;44101;50.462;30.432;2022-09-12T10:23:45;3.17;;;1.77;;
54979;SDS011;44101;50.462;30.432;2022-09-12T10:26:15;2.65;;;1.38;;
54979;SDS011;44101;50.462;30.432;2022-09-12T10:28:46;2.42;;;1.38;;
54979;SDS011;44101;50.462;30.432;2022-09-12T10:31:26;1.90;;;1.23;;
54979;SDS011;44101;50.462;30.432;2022-09-12T10:36:25;2.25;;;1.33;;
54979;SDS011;44101;50.462;30.432;2022-09-12T10:39:03;1.80;;;1.30;;
54979;SDS011;44101;50.462;30.432;2022-09-12T10:41:34;4.60;;;1.20;;
54979;SDS011;44101;50.462;30.432;2022-09-12T10:44:06;4.90;;;1.60;;
54979;SDS011;44101;50.462;30.432;2022-09-12T10:46:34;2.50;;;1.60;;
54979;SDS011;44101;50.462;30.432;2022-09-12T10:51:45;2.60;;;1.83;;
54979;SDS011;44101;50.462;30.432;2022-09-12T10:54:11;4.90;;;1.42;;
54979;SDS011;44101;50.462;30.432;2022-09-12T10:56:43;1.90;;;1.75;;
54979;SDS011;44101;50.462;30.432;2022-09-12T11:01:59;1.90;;;1.73;;
54979;SDS011;44101;50.462;30.432;2022-09-12T11:12:44;3.20;;;2.20;;
54979;SDS011;44101;50.462;30.432;2022-09-12T11:40:36;4.40;;;3.22;;
54979;SDS011;44101;50.462;30.432;2022-09-12T11:45:42;4.93;;;3.58;;
54979;SDS011;44101;50.462;30.432;2022-09-12T11:48:15;5.93;;;3.92;;
54979;SDS011;44101;50.462;30.432;2022-09-12T11:50:57;7.53;;;6.55;;
54979;SDS011;44101;50.462;30.432;2022-09-12T11:53:28;7.82;;;6.35;;
54979;SDS011;44101;50.462;30.432;2022-09-12T11:56:05;9.32;;;6.35;;
54979;SDS011;44101;50.462;30.432;2022-09-12T11:58:38;9.05;;;6.30;;
54979;SDS011;44101;50.462;30.432;2022-09-12T12:01:30;11.00;;;7.47;;
54979;SDS011;44101;50.462;30.432;2022-09-12T12:03:57;12.88;;;10.40;;
54979;SDS011;44101;50.462;30.432;2022-09-12T12:06:31;10.40;;;6.70;;
54979;SDS011;44101;50.462;30.432;2022-09-12T12:09:11;4.78;;;3.25;;
54979;SDS011;44101;50.462;30.432;2022-09-12T12:11:42;4.90;;;2.50;;
54979;SDS011;44101;50.462;30.432;2022-09-12T12:16:46;4.07;;;2.70;;
54979;SDS011;44101;50.462;30.432;2022-09-12T12:21:46;5.22;;;2.55;;
54979;SDS011;44101;50.462;30.432;2022-09-12T12:24:15;4.30;;;2.80;;
54979;SDS011;44101;50.462;30.432;2022-09-12T12:26:43;6.95;;;2.72;;
54979;SDS011;44101;50.462;30.432;2022-09-12T12:29:34;4.05;;;2.53;;
54979;SDS011;44101;50.462;30.432;2022-09-12T12:34:31;5.10;;;2.70;;
54979;SDS011;44101;50.462;30.432;2022-09-12T12:45:43;4.65;;;2.55;;
54979;SDS011;44101;50.462;30.432;2022-09-12T12:47:56;4.43;;;2.25;;
54979;SDS011;44101;50.462;30.432;2022-09-12T12:50:26;10.98;;;4.40;;
54979;SDS011;44101;50.462;30.432;2022-09-12T12:52:55;20.00;;;5.03;;
54979;SDS011;44101;50.462;30.432;2022-09-12T12:55:25;3.80;;;1.85;;
54979;SDS011;44101;50.462;30.432;2022-09-12T12:57:58;10.38;;;2.90;;
54979;SDS011;44101;50.462;30.432;2022-09-12T13:00:26;4.03;;;2.20;;
54979;SDS011;44101;50.462;30.432;2022-09-12T13:02:57;6.78;;;2.50;;
54979;SDS011;44101;50.462;30.432;2022-09-12T13:08:28;4.80;;;2.20;;
54979;SDS011;44101;50.462;30.432;2022-09-12T13:11:00;7.90;;;2.60;;
54979;SDS011;44101;50.462;30.432;2022-09-12T13:13:36;8.48;;;2.40;;
54979;SDS011;44101;50.462;30.432;2022-09-12T13:16:07;5.75;;;2.17;;
54979;SDS011;44101;50.462;30.432;2022-09-12T13:18:44;3.85;;;2.35;;
54979;SDS011;44101;50.462;30.432;2022-09-12T13:21:12;3.60;;;2.05;;
54979;SDS011;44101;50.462;30.432;2022-09-12T13:23:40;5.65;;;2.30;;
54979;SDS011;44101;50.462;30.432;2022-09-12T13:26:10;4.93;;;2.72;;
54979;SDS011;44101;50.462;30.432;2022-09-12T13:28:47;5.13;;;2.53;;
54979;SDS011;44101;50.462;30.432;2022-09-12T13:31:20;8.30;;;3.05;;
54979;SDS011;44101;50.462;30.432;2022-09-12T13:33:53;3.90;;;2.22;;
54979;SDS011;44101;50.462;30.432;2022-09-12T13:45:22;3.25;;;2.30;;
54979;SDS011;44101;50.462;30.432;2022-09-12T13:47:52;5.32;;;2.35;;
54979;SDS011;44101;50.462;30.432;2022-09-12T13:50:25;4.22;;;2.65;;
54979;SDS011;44101;50.462;30.432;2022-09-12T13:52:56;7.43;;;2.40;;
54979;SDS011;44101;50.462;30.432;2022-09-12T13:55:31;4.57;;;2.17;;
54979;SDS011;44101;50.462;30.432;2022-09-12T13:57:59;3.42;;;2.35;;
54979;SDS011;44101;50.462;30.432;2022-09-12T14:00:27;4.97;;;2.50;;
54979;SDS011;44101;50.462;30.432;2022-09-12T14:02:55;5.60;;;2.85;;
54979;SDS011;44101;50.462;30.432;2022-09-12T14:05:40;10.45;;;3.13;;
54979;SDS011;44101;50.462;30.432;2022-09-12T14:08:10;7.63;;;3.33;;
54979;SDS011;44101;50.462;30.432;2022-09-12T14:10:42;5.15;;;2.83;;
54979;SDS011;44101;50.462;30.432;2022-09-12T14:13:10;15.05;;;5.05;;
54979;SDS011;44101;50.462;30.432;2022-09-12T14:15:40;7.57;;;3.65;;
54979;SDS011;44101;50.462;30.432;2022-09-12T14:18:18;6.20;;;2.58;;
54979;SDS011;44101;50.462;30.432;2022-09-12T14:20:47;6.32;;;3.00;;
54979;SDS011;44101;50.462;30.432;2022-09-12T14:23:27;6.00;;;3.30;;
54979;SDS011;44101;50.462;30.432;2022-09-12T14:25:54;8.45;;;3.30;;
54979;SDS011;44101;50.462;30.432;2022-09-12T14:28:24;6.38;;;3.40;;
54979;SDS011;44101;50.462;30.432;2022-09-12T14:31:00;7.15;;;3.55;;
54979;SDS011;44101;50.462;30.432;2022-09-12T14:33:31;11.75;;;3.78;;
54979;SDS011;44101;50.462;30.432;2022-09-12T14:38:44;11.50;;;5.05;;
54979;SDS011;44101;50.462;30.432;2022-09-12T14:41:13;5.45;;;3.35;;
54979;SDS011;44101;50.462;30.432;2022-09-12T14:44:06;5.18;;;3.67;;
54979;SDS011;44101;50.462;30.432;2022-09-12T14:46:35;8.65;;;3.72;;
54979;SDS011;44101;50.462;30.432;2022-09-12T14:51:32;6.57;;;4.38;;
54979;SDS011;44101;50.462;30.432;2022-09-12T14:54:00;13.13;;;5.40;;
54979;SDS011;44101;50.462;30.432;2022-09-12T14:56:42;8.18;;;5.40;;
54979;SDS011;44101;50.462;30.432;2022-09-12T15:02:17;10.07;;;6.70;;
54979;SDS011;44101;50.462;30.432;2022-09-12T15:04:50;8.57;;;6.43;;
54979;SDS011;44101;50.462;30.432;2022-09-12T15:07:41;8.77;;;6.60;;
54979;SDS011;44101;50.462;30.432;2022-09-12T15:12:42;11.10;;;5.57;;
54979;SDS011;44101;50.462;30.432;2022-09-12T15:15:16;11.35;;;5.93;;
54979;SDS011;44101;50.462;30.432;2022-09-12T15:17:43;8.13;;;6.00;;
54979;SDS011;44101;50.462;30.432;2022-09-12T15:20:09;5.72;;;4.90;;
54979;SDS011;44101;50.462;30.432;2022-09-12T15:22:35;6.65;;;4.10;;
54979;SDS011;44101;50.462;30.432;2022-09-12T15:25:02;11.85;;;4.13;;
54979;SDS011;44101;50.462;30.432;2022-09-12T15:27:29;5.43;;;3.42;;
54979;SDS011;44101;50.462;30.432;2022-09-12T15:29:54;5.25;;;3.53;;
54979;SDS011;44101;50.462;30.432;2022-09-12T15:32:29;8.35;;;2.92;;
54979;SDS011;44101;50.462;30.432;2022-09-12T15:34:55;8.75;;;4.38;;
54979;SDS011;44101;50.462;30.432;2022-09-12T15:37:22;17.50;;;12.27;;
54979;SDS011;44101;50.462;30.432;2022-09-12T15:39:48;7.55;;;4.70;;
54979;SDS011;44101;50.462;30.432;2022-09-12T15:42:14;9.75;;;4.68;;
54979;SDS011;44101;50.462;30.432;2022-09-12T15:44:41;6.63;;;4.20;;
54979;SDS011;44101;50.462;30.432;2022-09-12T15:47:08;6.03;;;4.47;;
54979;SDS011;44101;50.462;30.432;2022-09-12T15:49:40;5.55;;;4.05;;
54979;SDS011;44101;50.462;30.432;2022-09-12T15:52:06;5.72;;;4.53;;
54979;SDS011;44101;50.462;30.432;2022-09-12T15:54:36;9.45;;;4.05;;
54979;SDS011;44101;50.462;30.432;2022-09-12T15:57:02;8.20;;;5.10;;
54979;SDS011;44101;50.462;30.432;2022-09-12T15:59:28;8.77;;;5.38;;
54979;SDS011;44101;50.462;30.432;2022-09-12T16:01:55;8.10;;;5.38;;
54979;SDS011;44101;50.462;30.432;2022-09-12T16:04:22;9.20;;;6.72;;
54979;SDS011;44101;50.462;30.432;2022-09-12T16:06:52;11.07;;;7.22;;
54979;SDS011;44101;50.462;30.432;2022-09-12T16:09:20;8.50;;;5.53;;
54979;SDS011;44101;50.462;30.432;2022-09-12T16:11:46;7.20;;;5.28;;
54979;SDS011;44101;50.462;30.432;2022-09-12T16:14:12;12.57;;;5.72;;
54979;SDS011;44101;50.462;30.432;2022-09-12T16:16:39;13.13;;;6.65;;
54979;SDS011;44101;50.462;30.432;2022-09-12T16:19:06;8.68;;;6.43;;
54979;SDS011;44101;50.462;30.432;2022-09-12T16:21:33;11.38;;;8.73;;
54979;SDS011;44101;50.462;30.432;2022-09-12T16:23:59;10.25;;;5.75;;
54979;SDS011;44101;50.462;30.432;2022-09-12T16:26:26;7.40;;;5.25;;
54979;SDS011;44101;50.462;30.432;2022-09-12T16:28:56;11.65;;;7.90;;
54979;SDS011;44101;50.462;30.432;2022-09-12T16:31:23;10.77;;;7.78;;
54979;SDS011;44101;50.462;30.432;2022-09-12T16:33:49;8.63;;;5.80;;
54979;SDS011;44101;50.462;30.432;2022-09-12T16:36:16;9.80;;;5.78;;
54979;SDS011;44101;50.462;30.432;2022-09-12T16:38:44;5.88;;;4.75;;
54979;SDS011;44101;50.462;30.432;2022-09-12T16:41:14;9.43;;;5.03;;
54979;SDS011;44101;50.462;30.432;2022-09-12T16:43:41;6.50;;;4.60;;
54979;SDS011;44101;50.462;30.432;2022-09-12T16:46:14;6.85;;;4.80;;
54979;SDS011;44101;50.462;30.432;2022-09-12T16:48:45;6.85;;;4.75;;
54979;SDS011;44101;50.462;30.432;2022-09-12T16:51:16;6.50;;;4.85;;
54979;SDS011;44101;50.462;30.432;2022-09-12T16:53:44;5.85;;;4.75;;
54979;SDS011;44101;50.462;30.432;2022-09-12T16:56:10;6.60;;;5.00;;
54979;SDS011;44101;50.462;30.432;2022-09-12T16:58:36;7.75;;;5.38;;
54979;SDS011;44101;50.462;30.432;2022-09-12T17:01:04;5.60;;;4.25;;
54979;SDS011;44101;50.462;30.432;2022-09-12T17:03:31;5.35;;;4.82;;
54979;SDS011;44101;50.462;30.432;2022-09-12T17:05:58;7.13;;;5.85;;
54979;SDS011;44101;50.462;30.432;2022-09-12T17:11:01;5.25;;;4.63;;
54979;SDS011;44101;50.462;30.432;2022-09-12T17:13:28;11.18;;;5.57;;
54979;SDS011;44101;50.462;30.432;2022-09-12T17:15:54;7.97;;;5.80;;
54979;SDS011;44101;50.462;30.432;2022-09-12T17:18:20;8.20;;;4.80;;
54979;SDS011;44101;50.462;30.432;2022-09-12T17:20:48;9.40;;;5.05;;
54979;SDS011;44101;50.462;30.432;2022-09-12T17:23:15;9.27;;;6.22;;
54979;SDS011;44101;50.462;30.432;2022-09-12T17:25:50;5.95;;;5.13;;
54979;SDS011;44101;50.462;30.432;2022-09-12T17:28:19;7.68;;;4.40;;
54979;SDS011;44101;50.462;30.432;2022-09-12T17:30:45;15.13;;;8.23;;
54979;SDS011;44101;50.462;30.432;2022-09-12T17:33:11;5.93;;;4.55;;
54979;SDS011;44101;50.462;30.432;2022-09-12T17:35:37;5.30;;;3.70;;
54979;SDS011;44101;50.462;30.432;2022-09-12T17:38:03;7.63;;;5.82;;
54979;SDS011;44101;50.462;30.432;2022-09-12T17:40:29;7.13;;;5.05;;